createdAt,value
2022-08-22T00:00:43.682Z,63.61
2022-08-22T00:01:50.999Z,64.33
2022-08-22T00:02:48.340Z,48.94
2022-08-22T00:02:54.875Z,58.78
2022-08-22T00:02:58.997Z,61.38
2022-08-22T00:03:06.480Z,59.76
2022-08-22T00:03:06.869Z,62.07
2022-08-22T00:03:07.953Z,50.84
2022-08-22T00:03:15.778Z,62.92
2022-08-22T00:04:23.695Z,64.39
2022-08-22T00:05:31.866Z,63.69
2022-08-22T00:06:33.215Z,64.12
2022-08-22T00:07:34.604Z,64.07
2022-08-22T00:08:43.874Z,64.46
2022-08-22T00:09:50.762Z,64.23
2022-08-22T00:11:10.946Z,64.42
2022-08-22T00:12:18.194Z,64.28
2022-08-22T00:13:25.411Z,63.83
2022-08-22T00:14:46.775Z,63.64
2022-08-22T00:16:06.762Z,63.76
2022-08-22T00:17:26.722Z,63.43
2022-08-22T00:18:36.178Z,63.43
2022-08-22T00:19:37.593Z,63.05
2022-08-22T00:21:05.328Z,63.33
2022-08-22T00:22:17.757Z,63.38
2022-08-22T00:23:27.185Z,63.64
2022-08-22T00:24:41.667Z,63.53
2022-08-22T00:25:49.137Z,63.43
2022-08-22T00:26:50.603Z,63.46
2022-08-22T00:27:55.073Z,63.06
2022-08-22T00:28:59.574Z,62.99
2022-08-22T00:30:07.643Z,63.38
2022-08-22T00:31:21.291Z,63.40
2022-08-22T00:32:22.661Z,63.23
2022-08-22T00:33:27.502Z,63.27
2022-08-22T00:34:43.336Z,63.50
2022-08-22T00:35:48.063Z,63.79
2022-08-22T00:36:52.260Z,63.67
2022-08-22T00:38:00.335Z,63.61
2022-08-22T00:39:15.668Z,63.47
2022-08-22T00:40:28.948Z,63.45
2022-08-22T00:41:33.222Z,64.01
2022-08-22T00:42:43.552Z,63.27
2022-08-22T00:44:00.164Z,63.25
2022-08-22T00:45:25.505Z,64.02
2022-08-22T00:46:33.004Z,64.58
2022-08-22T00:47:37.147Z,65.36
2022-08-22T00:48:57.318Z,64.53
2022-08-22T00:50:17.439Z,64.58
2022-08-22T00:51:21.930Z,64.42
2022-08-22T00:52:36.714Z,65.29
2022-08-22T00:53:50.778Z,65.65
2022-08-22T00:55:10.348Z,65.79
2022-08-22T00:56:30.399Z,65.57
2022-08-22T00:57:50.667Z,66.01
2022-08-22T00:59:22.828Z,66.36
2022-08-22T01:00:24.856Z,66.81
2022-08-22T01:01:37.824Z,66.64
2022-08-22T01:02:56.093Z,66.34
2022-08-22T01:04:03.602Z,67.06
2022-08-22T01:05:20.186Z,66.73
2022-08-22T01:06:40.197Z,67.22
2022-08-22T01:08:00.273Z,67.23
2022-08-22T01:09:01.819Z,67.52
2022-08-22T01:10:42.030Z,67.51
2022-08-22T01:12:01.674Z,68.08
2022-08-22T01:13:09.058Z,68.11
2022-08-22T01:14:34.853Z,68.21
2022-08-22T01:15:37.637Z,68.53
2022-08-22T01:16:45.052Z,68.48
2022-08-22T01:17:49.493Z,68.40
2022-08-22T01:18:59.566Z,68.56
2022-08-22T01:20:00.952Z,68.76
2022-08-22T01:21:11.408Z,69.07
2022-08-22T01:22:12.813Z,68.87
2022-08-22T01:23:20.153Z,69.29
2022-08-22T01:24:40.465Z,69.36
2022-08-22T01:25:48.952Z,69.48
2022-08-22T01:26:52.276Z,70.12
2022-08-22T01:28:05.675Z,70.02
2022-08-22T01:29:10.577Z,69.95
2022-08-22T01:30:15.092Z,70.21
2022-08-22T01:31:16.529Z,70.17
2022-08-22T01:32:23.881Z,70.42
2022-08-22T01:33:40.379Z,70.72
2022-08-22T01:34:55.413Z,70.65
2022-08-22T01:36:13.646Z,70.88
2022-08-22T01:37:33.928Z,70.70
2022-08-22T01:39:00.405Z,71.07
2022-08-22T01:40:01.829Z,71.43
2022-08-22T01:41:26.834Z,71.53
2022-08-22T01:42:36.823Z,71.53
2022-08-22T01:44:00.258Z,71.97
2022-08-22T01:45:14.326Z,72.11
2022-08-22T01:46:30.783Z,72.46
2022-08-22T01:47:54.240Z,72.25
2022-08-22T01:49:04.136Z,72.75
2022-08-22T01:50:24.135Z,72.64
2022-08-22T01:51:43.878Z,72.60
2022-08-22T01:52:48.374Z,72.90
2022-08-22T01:54:09.184Z,73.38
2022-08-22T01:55:24.162Z,73.54
2022-08-22T01:56:31.327Z,73.27
2022-08-22T01:57:47.971Z,73.75
2022-08-22T01:59:01.818Z,74.09
2022-08-22T02:00:15.248Z,74.29
2022-08-22T02:01:34.769Z,74.85
2022-08-22T02:02:36.124Z,75.43
2022-08-22T02:03:55.021Z,75.26
2022-08-22T02:05:21.726Z,75.48
2022-08-22T02:06:31.510Z,75.66
2022-08-22T02:07:53.243Z,75.65
2022-08-22T02:09:00.691Z,75.74
2022-08-22T02:10:11.511Z,75.93
2022-08-22T02:11:31.261Z,76.22
2022-08-22T02:12:37.258Z,76.44
2022-08-22T02:13:44.791Z,77.34
2022-08-22T02:15:09.243Z,77.70
2022-08-22T02:16:32.851Z,77.79
2022-08-22T02:17:52.925Z,77.92
2022-08-22T02:19:00.677Z,78.45
2022-08-22T02:20:20.597Z,78.15
2022-08-22T02:21:30.869Z,78.74
2022-08-22T02:22:51.745Z,79.17
2022-08-22T02:23:58.554Z,79.28
2022-08-22T02:25:17.267Z,79.13
2022-08-22T02:26:24.490Z,79.02
2022-08-22T02:27:33.794Z,79.24
2022-08-22T02:28:57.127Z,79.70
2022-08-22T02:30:11.823Z,79.61
2022-08-22T02:31:19.526Z,79.80
2022-08-22T02:32:30.139Z,79.83
2022-08-22T02:33:34.629Z,80.08
2022-08-22T02:34:42.290Z,79.81
2022-08-22T02:35:50.726Z,80.16
2022-08-22T02:37:12.356Z,80.32
2022-08-22T02:38:19.450Z,80.86
2022-08-22T02:39:35.709Z,81.20
2022-08-22T02:40:39.038Z,81.42
2022-08-22T02:41:55.945Z,81.34
2022-08-22T02:43:03.393Z,81.10
2022-08-22T02:44:14.751Z,80.27
2022-08-22T02:45:21.230Z,80.96
2022-08-22T02:46:42.899Z,80.95
2022-08-22T02:47:58.746Z,81.01
2022-08-22T02:49:09.243Z,81.46
2022-08-22T02:50:17.637Z,81.61
2022-08-22T02:51:23.624Z,80.83
2022-08-22T02:52:48.098Z,80.46
2022-08-22T02:54:08.266Z,80.58
2022-08-22T02:55:20.632Z,80.55
2022-08-22T02:56:33.239Z,79.93
2022-08-22T02:57:54.863Z,79.29
2022-08-22T02:59:19.301Z,79.54
2022-08-22T03:00:31.385Z,79.27
2022-08-22T03:01:36.393Z,79.21
2022-08-22T03:02:39.999Z,79.02
2022-08-22T03:03:43.299Z,79.13
2022-08-22T03:04:47.288Z,79.25
2022-08-22T03:05:51.022Z,79.32
2022-08-22T03:06:58.262Z,79.07
2022-08-22T03:08:04.780Z,78.83
2022-08-22T03:09:26.470Z,78.84
2022-08-22T03:10:29.978Z,78.41
2022-08-22T03:11:33.136Z,78.67
2022-08-22T03:12:34.514Z,78.79
2022-08-22T03:13:37.878Z,78.65
2022-08-22T03:14:42.531Z,78.57
2022-08-22T03:16:06.926Z,78.67
2022-08-22T03:17:14.039Z,78.39
2022-08-22T03:18:21.361Z,78.48
2022-08-22T03:19:43.658Z,78.29
2022-08-22T03:20:47.693Z,78.23
2022-08-22T03:21:49.164Z,78.43
2022-08-22T03:22:50.523Z,78.55
2022-08-22T03:23:59.197Z,78.38
2022-08-22T03:25:23.712Z,78.38
2022-08-22T03:26:33.039Z,78.43
2022-08-22T03:27:38.828Z,78.69
2022-08-22T03:28:40.236Z,78.63
2022-08-22T03:30:05.636Z,78.81
2022-08-22T03:31:16.182Z,78.84
2022-08-22T03:32:22.484Z,78.78
2022-08-22T03:33:26.110Z,78.78
2022-08-22T03:34:27.526Z,79.04
2022-08-22T03:35:50.245Z,79.29
2022-08-22T03:37:10.250Z,79.48
2022-08-22T03:38:34.739Z,79.66
2022-08-22T03:39:47.584Z,79.71
2022-08-22T03:40:55.295Z,79.43
2022-08-22T03:42:08.371Z,79.71
2022-08-22T03:43:28.593Z,80.07
2022-08-22T03:44:56.167Z,80.22
2022-08-22T03:46:00.483Z,80.28
2022-08-22T03:47:01.922Z,80.62
2022-08-22T03:48:15.603Z,80.91
2022-08-22T03:49:19.933Z,81.28
2022-08-22T03:50:56.864Z,81.21
2022-08-22T03:52:06.557Z,81.19
2022-08-22T03:53:19.736Z,81.13
2022-08-22T03:54:39.953Z,81.22
2022-08-22T03:55:59.893Z,81.22
2022-08-22T03:57:04.243Z,81.19
2022-08-22T03:58:05.589Z,81.51
2022-08-22T03:59:42.731Z,81.70
2022-08-22T04:01:02.131Z,82.26
2022-08-22T04:02:42.399Z,82.28
2022-08-22T04:03:55.344Z,82.32
2022-08-22T04:05:14.708Z,82.44
2022-08-22T04:06:31.518Z,82.54
2022-08-22T04:07:33.328Z,82.33
2022-08-22T04:08:43.919Z,82.30
2022-08-22T04:10:05.142Z,82.60
2022-08-22T04:11:12.632Z,82.59
2022-08-22T04:12:14.007Z,82.71
2022-08-22T04:13:15.368Z,83.36
2022-08-22T04:14:35.679Z,83.42
2022-08-22T04:16:03.382Z,83.32
2022-08-22T04:17:04.775Z,83.79
2022-08-22T04:18:24.594Z,83.63
2022-08-22T04:19:37.621Z,83.35
2022-08-22T04:20:59.287Z,83.56
2022-08-22T04:22:09.586Z,83.45
2022-08-22T04:23:29.566Z,83.51
2022-08-22T04:24:40.330Z,83.64
2022-08-22T04:25:53.240Z,83.93
2022-08-22T04:26:57.645Z,84.17
2022-08-22T04:28:11.217Z,84.15
2022-08-22T04:29:16.620Z,83.88
2022-08-22T04:30:17.993Z,84.23
2022-08-22T04:31:25.761Z,84.78
2022-08-22T04:32:37.357Z,84.37
2022-08-22T04:33:47.509Z,83.92
2022-08-22T04:34:52.153Z,83.61
2022-08-22T04:35:59.694Z,84.08
2022-08-22T04:37:03.995Z,84.18
2022-08-22T04:38:19.935Z,84.35
2022-08-22T04:39:45.941Z,83.82
2022-08-22T04:40:54.262Z,84.41
2022-08-22T04:42:32.208Z,84.63
2022-08-22T04:43:38.969Z,84.57
2022-08-22T04:44:47.893Z,84.25
2022-08-22T04:45:57.188Z,84.23
2022-08-22T04:47:02.237Z,84.01
2022-08-22T04:48:03.658Z,83.89
2022-08-22T04:49:07.428Z,83.51
2022-08-22T04:50:21.664Z,83.77
2022-08-22T04:51:27.589Z,83.74
2022-08-22T04:52:45.597Z,83.60
2022-08-22T04:54:03.973Z,83.66
2022-08-22T04:55:11.673Z,83.52
2022-08-22T04:56:22.180Z,83.28
2022-08-22T04:57:35.790Z,83.63
2022-08-22T04:58:48.595Z,83.32
2022-08-22T04:59:50.188Z,83.02
2022-08-22T05:01:07.909Z,83.29
2022-08-22T05:02:11.331Z,82.97
2022-08-22T05:03:15.012Z,83.02
2022-08-22T05:04:27.565Z,82.83
2022-08-22T05:05:32.427Z,82.87
2022-08-22T05:06:37.592Z,83.33
2022-08-22T05:07:42.029Z,83.33
2022-08-22T05:08:45.773Z,82.79
2022-08-22T05:09:55.394Z,82.58
2022-08-22T05:10:57.422Z,82.65
2022-08-22T05:12:04.873Z,81.98
2022-08-22T05:13:07.917Z,81.82
2022-08-22T05:14:16.198Z,81.15
2022-08-22T05:15:23.070Z,80.91
2022-08-22T05:16:28.959Z,80.74
2022-08-22T05:17:31.826Z,80.77
2022-08-22T05:18:36.257Z,80.61
2022-08-22T05:19:40.045Z,79.92
2022-08-22T05:20:44.791Z,79.45
2022-08-22T05:21:48.553Z,79.21
2022-08-22T05:22:57.249Z,79.59
2022-08-22T05:24:01.602Z,79.11
2022-08-22T05:25:05.382Z,78.86
2022-08-22T05:26:07.430Z,78.66
2022-08-22T05:27:11.490Z,78.12
2022-08-22T05:28:23.090Z,77.37
2022-08-22T05:29:27.823Z,75.82
2022-08-22T05:30:30.020Z,75.48
2022-08-22T05:31:41.177Z,74.89
2022-08-22T05:32:55.718Z,74.40
2022-08-22T05:34:01.980Z,73.73
2022-08-22T05:35:05.667Z,73.56
2022-08-22T05:36:07.142Z,73.52
2022-08-22T05:37:11.714Z,73.57
2022-08-22T05:38:15.882Z,73.40
2022-08-22T05:39:25.207Z,73.80
2022-08-22T05:40:28.466Z,73.84
2022-08-22T05:41:35.416Z,73.50
2022-08-22T05:42:37.070Z,73.40
2022-08-22T05:43:40.606Z,72.70
2022-08-22T05:44:42.126Z,72.37
2022-08-22T05:45:46.174Z,72.50
2022-08-22T05:47:07.819Z,72.85
2022-08-22T05:48:16.146Z,72.73
2022-08-22T05:49:20.554Z,72.71
2022-08-22T05:50:34.211Z,72.55
2022-08-22T05:51:42.185Z,72.53
2022-08-22T05:53:02.589Z,72.17
2022-08-22T05:54:14.332Z,71.64
2022-08-22T05:55:24.852Z,71.72
2022-08-22T05:56:34.618Z,71.23
2022-08-22T05:57:38.173Z,71.52
2022-08-22T05:58:39.522Z,71.33
2022-08-22T05:59:42.781Z,71.37
2022-08-22T06:00:47.301Z,71.15
2022-08-22T06:02:00.803Z,71.08
2022-08-22T06:03:28.800Z,70.92
2022-08-22T06:04:30.234Z,70.75
2022-08-22T06:05:33.477Z,70.85
2022-08-22T06:06:41.502Z,71.10
2022-08-22T06:07:48.668Z,70.68
2022-08-22T06:09:12.898Z,70.75
2022-08-22T06:10:32.788Z,70.34
2022-08-22T06:11:55.786Z,70.26
2022-08-22T06:13:01.636Z,69.99
2022-08-22T06:14:13.056Z,69.76
2022-08-22T06:15:20.947Z,68.79
2022-08-22T06:16:28.685Z,68.53
2022-08-22T06:17:35.677Z,68.26
2022-08-22T06:18:40.035Z,68.35
2022-08-22T06:19:44.727Z,68.92
2022-08-22T06:20:58.127Z,68.55
2022-08-22T06:22:00.633Z,67.60
2022-08-22T06:23:02.632Z,67.49
2022-08-22T06:24:05.466Z,66.75
2022-08-22T06:25:11.325Z,66.95
2022-08-22T06:26:20.279Z,65.30
2022-08-22T06:27:26.087Z,65.58
2022-08-22T06:28:34.458Z,65.59
2022-08-22T06:29:37.865Z,64.45
2022-08-22T06:30:39.714Z,61.96
2022-08-22T06:31:42.874Z,59.07
2022-08-22T06:32:59.889Z,57.04
2022-08-22T06:34:01.807Z,56.99
2022-08-22T06:35:06.977Z,56.54
2022-08-22T06:36:14.299Z,56.04
2022-08-22T06:37:23.544Z,54.28
2022-08-22T06:38:29.363Z,52.71
2022-08-22T06:39:35.412Z,51.40
2022-08-22T06:40:36.885Z,49.57
2022-08-22T06:41:45.033Z,48.78
2022-08-22T06:42:49.975Z,46.15
2022-08-22T06:43:51.928Z,43.92
2022-08-22T06:45:00.373Z,42.06
2022-08-22T06:46:01.938Z,41.58
2022-08-22T06:47:06.011Z,41.30
2022-08-22T06:48:07.724Z,40.92
2022-08-22T06:49:09.898Z,38.30
2022-08-22T06:50:14.008Z,38.25
2022-08-22T06:51:17.257Z,35.91
2022-08-22T06:52:20.927Z,35.32
2022-08-22T06:53:28.164Z,35.73
2022-08-22T06:54:34.465Z,35.72
2022-08-22T06:55:38.366Z,36.11
2022-08-22T06:56:42.273Z,34.54
2022-08-22T06:57:49.431Z,34.31
2022-08-22T06:58:54.503Z,33.38
2022-08-22T06:59:57.050Z,32.96
2022-08-22T07:01:11.723Z,33.33
2022-08-22T07:02:26.274Z,33.64
2022-08-22T07:03:50.779Z,34.31
2022-08-22T07:04:52.273Z,34.20
2022-08-22T07:05:55.286Z,34.05
2022-08-22T07:06:58.704Z,33.90
2022-08-22T07:08:04.958Z,32.92
2022-08-22T07:09:07.322Z,32.73
2022-08-22T07:10:11.058Z,32.27
2022-08-22T07:11:47.890Z,32.14
2022-08-22T07:12:51.692Z,32.58
2022-08-22T07:13:58.290Z,33.15
2022-08-22T07:15:08.610Z,33.79
2022-08-22T07:16:10.327Z,33.76
2022-08-22T07:17:18.045Z,34.45
2022-08-22T07:18:20.766Z,35.72
2022-08-22T07:19:30.541Z,36.02
2022-08-22T07:20:35.832Z,38.03
2022-08-22T07:21:45.434Z,38.78
2022-08-22T07:22:55.544Z,39.63
2022-08-22T07:23:58.450Z,41.39
2022-08-22T07:25:03.556Z,42.71
2022-08-22T07:26:05.018Z,43.27
2022-08-22T07:27:15.837Z,43.22
2022-08-22T07:28:20.060Z,45.48
2022-08-22T07:29:27.411Z,44.52
2022-08-22T07:30:38.590Z,45.22
2022-08-22T07:31:49.907Z,46.29
2022-08-22T07:33:25.305Z,46.40
2022-08-22T07:34:36.276Z,46.44
2022-08-22T07:35:42.097Z,47.80
2022-08-22T07:37:13.172Z,47.90
2022-08-22T07:38:32.977Z,47.74
2022-08-22T07:39:40.552Z,47.41
2022-08-22T07:40:46.871Z,47.87
2022-08-22T07:42:08.525Z,47.15
2022-08-22T07:43:21.704Z,47.88
2022-08-22T07:44:25.403Z,47.94
2022-08-22T07:45:26.934Z,48.18
2022-08-22T07:46:40.710Z,48.65
2022-08-22T07:47:49.234Z,48.51
2022-08-22T07:49:11.336Z,47.53
2022-08-22T07:50:17.039Z,48.37
2022-08-22T07:51:21.935Z,48.26
2022-08-22T07:52:23.672Z,48.47
2022-08-22T07:53:30.108Z,48.11
2022-08-22T07:54:46.834Z,47.75
2022-08-22T07:55:49.739Z,47.97
2022-08-22T07:57:20.855Z,48.67
2022-08-22T07:58:24.269Z,48.33
2022-08-22T07:59:26.561Z,48.58
2022-08-22T08:00:28.676Z,49.19
2022-08-22T08:01:30.321Z,48.70
2022-08-22T08:02:32.313Z,48.73
2022-08-22T08:03:33.893Z,48.46
2022-08-22T08:04:40.237Z,48.82
2022-08-22T08:05:43.702Z,48.19
2022-08-22T08:06:48.038Z,48.50
2022-08-22T08:07:51.774Z,48.22
2022-08-22T08:08:54.158Z,49.00
2022-08-22T08:10:07.910Z,49.08
2022-08-22T08:11:13.499Z,48.10
2022-08-22T08:12:15.977Z,48.59
2022-08-22T08:13:22.790Z,48.83
2022-08-22T08:14:25.455Z,49.11
2022-08-22T08:15:27.075Z,49.15
2022-08-22T08:16:30.987Z,49.69
2022-08-22T08:17:33.764Z,49.45
2022-08-22T08:18:36.093Z,48.79
2022-08-22T08:19:40.981Z,49.67
2022-08-22T08:20:42.405Z,49.31
2022-08-22T08:21:52.074Z,49.67
2022-08-22T08:22:54.523Z,49.47
2022-08-22T08:23:56.493Z,49.62
2022-08-22T08:24:58.879Z,49.78
2022-08-22T08:26:06.931Z,49.76
2022-08-22T08:27:11.893Z,50.24
2022-08-22T08:28:14.039Z,50.25
2022-08-22T08:29:16.765Z,50.20
2022-08-22T08:30:21.508Z,50.18
2022-08-22T08:31:22.910Z,49.80
2022-08-22T08:32:25.470Z,49.75
2022-08-22T08:33:27.597Z,50.28
2022-08-22T08:34:30.567Z,50.57
2022-08-22T08:36:02.112Z,50.42
2022-08-22T08:37:03.185Z,51.16
2022-08-22T08:38:10.621Z,50.73
2022-08-22T08:39:21.186Z,50.65
2022-08-22T08:40:28.322Z,50.75
2022-08-22T08:41:48.444Z,50.52
2022-08-22T08:42:49.838Z,51.09
2022-08-22T08:43:51.229Z,50.60
2022-08-22T08:45:18.127Z,50.51
2022-08-22T08:46:19.563Z,50.19
2022-08-22T08:47:39.826Z,50.42
2022-08-22T08:49:09.545Z,50.54
2022-08-22T08:50:29.603Z,50.76
2022-08-22T08:51:49.714Z,50.70
2022-08-22T08:53:09.617Z,50.85
2022-08-22T08:54:17.850Z,51.07
2022-08-22T08:55:21.866Z,50.91
2022-08-22T08:56:30.342Z,50.60
2022-08-22T08:57:41.298Z,50.44
2022-08-22T08:59:01.834Z,50.96
2022-08-22T09:00:09.086Z,50.07
2022-08-22T09:01:32.208Z,50.26
2022-08-22T09:02:52.466Z,50.72
2022-08-22T09:04:15.205Z,51.27
2022-08-22T09:05:16.938Z,50.55
2022-08-22T09:06:42.513Z,50.92
2022-08-22T09:07:53.294Z,51.30
2022-08-22T09:08:55.883Z,50.17
2022-08-22T09:09:57.433Z,50.31
2022-08-22T09:10:58.946Z,50.42
2022-08-22T09:12:15.613Z,50.12
2022-08-22T09:13:34.550Z,49.59
2022-08-22T09:14:45.432Z,50.21
2022-08-22T09:16:05.296Z,50.54
2022-08-22T09:17:06.988Z,50.21
2022-08-22T09:18:12.074Z,49.86
2022-08-22T09:19:49.828Z,49.71
2022-08-22T09:21:14.279Z,49.31
2022-08-22T09:24:18.959Z,48.68
2022-08-22T09:25:23.728Z,49.20
2022-08-22T09:26:40.519Z,49.04
2022-08-22T09:27:48.042Z,49.06
2022-08-22T09:29:01.518Z,48.72
2022-08-22T09:30:05.830Z,48.60
2022-08-22T09:32:35.109Z,48.16
2022-08-22T09:33:53.862Z,48.46
2022-08-22T09:35:16.814Z,48.33
2022-08-22T09:36:29.258Z,48.73
2022-08-22T09:37:45.481Z,48.32
2022-08-22T09:39:13.809Z,47.88
2022-08-22T09:40:33.802Z,48.28
2022-08-22T09:41:35.206Z,49.08
2022-08-22T09:42:39.752Z,47.36
2022-08-22T09:43:48.988Z,47.51
2022-08-22T09:44:59.403Z,47.10
2022-08-22T09:46:18.531Z,47.62
2022-08-22T09:47:26.927Z,47.24
2022-08-22T09:48:40.002Z,47.09
2022-08-22T09:49:49.669Z,47.34
2022-08-22T09:51:31.269Z,47.34
2022-08-22T09:52:34.618Z,46.98
2022-08-22T09:53:43.823Z,47.16
2022-08-22T09:54:48.660Z,47.11
2022-08-22T09:56:11.765Z,46.74
2022-08-22T09:57:17.215Z,46.62
2022-08-22T09:58:41.628Z,46.48
2022-08-22T09:59:58.486Z,46.18
2022-08-22T10:01:03.892Z,46.02
2022-08-22T10:02:21.882Z,46.28
2022-08-22T10:03:30.932Z,46.32
2022-08-22T10:04:32.319Z,45.88
2022-08-22T10:05:44.264Z,45.89
2022-08-22T10:06:55.477Z,45.40
2022-08-22T10:08:01.610Z,45.61
2022-08-22T10:09:09.864Z,45.38
2022-08-22T10:10:27.526Z,44.90
2022-08-22T10:11:49.178Z,44.71
2022-08-22T10:12:56.696Z,44.73
2022-08-22T10:14:03.501Z,45.04
2022-08-22T10:15:13.610Z,44.19
2022-08-22T10:16:15.099Z,44.21
2022-08-22T10:17:21.937Z,44.16
2022-08-22T10:18:29.569Z,44.30
2022-08-22T10:19:36.024Z,43.68
2022-08-22T10:20:45.396Z,43.48
2022-08-22T10:21:49.623Z,42.33
2022-08-22T10:23:11.078Z,41.64
2022-08-22T10:24:25.267Z,41.06
2022-08-22T10:25:36.792Z,41.58
2022-08-22T10:26:43.262Z,41.80
2022-08-22T10:27:44.647Z,41.80
2022-08-22T10:28:52.426Z,41.45
2022-08-22T10:29:53.822Z,41.80
2022-08-22T10:31:07.134Z,41.66
2022-08-22T10:32:28.507Z,40.81
2022-08-22T10:33:38.153Z,40.70
2022-08-22T10:34:45.535Z,41.11
2022-08-22T10:35:46.867Z,40.97
2022-08-22T10:37:07.861Z,40.60
2022-08-22T10:38:17.550Z,40.96
2022-08-22T10:39:23.214Z,41.38
2022-08-22T10:40:27.366Z,41.11
2022-08-22T10:41:37.450Z,41.09
2022-08-22T10:42:43.926Z,40.31
2022-08-22T10:43:56.548Z,39.67
2022-08-22T10:45:36.681Z,39.79
2022-08-22T10:46:49.817Z,37.96
2022-08-22T10:47:53.323Z,38.41
2022-08-22T10:49:05.811Z,38.46
2022-08-22T10:50:17.529Z,37.89
2022-08-22T10:51:32.526Z,38.02
2022-08-22T10:52:41.290Z,37.83
2022-08-22T10:54:19.839Z,37.61
2022-08-22T10:55:26.214Z,37.79
2022-08-22T10:56:34.962Z,37.69
2022-08-22T10:57:55.341Z,38.61
2022-08-22T10:58:59.773Z,37.80
2022-08-22T11:00:15.972Z,37.89
2022-08-22T11:01:41.533Z,38.55
2022-08-22T11:02:53.250Z,38.20
2022-08-22T11:04:12.903Z,37.36
2022-08-22T11:05:26.518Z,36.74
2022-08-22T11:06:35.611Z,37.33
2022-08-22T11:07:39.731Z,37.16
2022-08-22T11:09:01.620Z,35.29
2022-08-22T11:10:09.489Z,34.81
2022-08-22T11:11:20.050Z,34.97
2022-08-22T11:12:34.523Z,35.90
2022-08-22T11:13:43.399Z,35.73
2022-08-22T11:14:47.707Z,35.62
2022-08-22T11:16:04.348Z,34.43
2022-08-22T11:17:17.884Z,35.10
2022-08-22T11:18:35.469Z,34.43
2022-08-22T11:19:36.902Z,34.05
2022-08-22T11:20:48.122Z,34.86
2022-08-22T11:22:11.374Z,34.59
2022-08-22T11:23:35.948Z,33.83
2022-08-22T11:24:46.510Z,34.03
2022-08-22T11:26:06.620Z,33.13
2022-08-22T11:27:20.966Z,32.53
2022-08-22T11:28:42.449Z,31.61
2022-08-22T11:30:02.219Z,31.11
2022-08-22T11:31:22.730Z,30.23
2022-08-22T11:32:43.225Z,30.20
2022-08-22T11:33:54.649Z,30.55
2022-08-22T11:35:02.765Z,30.26
2022-08-22T11:36:04.571Z,30.94
2022-08-22T11:37:18.945Z,30.66
2022-08-22T11:38:37.699Z,31.00
2022-08-22T11:40:05.604Z,29.70
2022-08-22T11:41:28.294Z,29.98
2022-08-22T11:42:55.963Z,30.86
2022-08-22T11:44:07.669Z,31.57
2022-08-22T11:45:14.838Z,31.03
2022-08-22T11:46:19.742Z,31.52
2022-08-22T11:47:26.894Z,31.39
2022-08-22T11:48:36.581Z,31.04
2022-08-22T11:49:37.970Z,30.79
2022-08-22T11:50:44.977Z,31.46
2022-08-22T11:51:58.164Z,31.08
2022-08-22T11:53:18.842Z,31.66
2022-08-22T11:54:31.014Z,30.25
2022-08-22T11:55:35.692Z,29.70
2022-08-22T11:56:43.457Z,29.67
2022-08-22T11:57:51.998Z,30.19
2022-08-22T11:58:58.930Z,29.82
2022-08-22T12:00:06.904Z,30.04
2022-08-22T12:01:17.158Z,31.25
2022-08-22T12:02:31.071Z,32.01
2022-08-22T12:03:41.520Z,32.44
2022-08-22T12:05:06.326Z,32.64
2022-08-22T12:06:25.516Z,31.61
2022-08-22T12:07:39.124Z,32.54
2022-08-22T12:08:40.935Z,31.47
2022-08-22T12:09:47.622Z,31.73
2022-08-22T12:10:57.848Z,30.93
2022-08-22T12:12:02.171Z,31.70
2022-08-22T12:13:11.064Z,30.93
2022-08-22T12:14:22.174Z,31.02
2022-08-22T12:15:33.484Z,30.61
2022-08-22T12:16:34.922Z,31.24
2022-08-22T12:18:01.085Z,32.10
2022-08-22T12:19:22.951Z,30.08
2022-08-22T12:20:45.395Z,30.42
2022-08-22T12:22:05.405Z,30.42
2022-08-22T12:23:43.226Z,30.63
2022-08-22T12:25:03.136Z,30.25
2022-08-22T12:26:14.096Z,30.11
2022-08-22T12:27:29.232Z,31.18
2022-08-22T12:28:39.681Z,31.97
2022-08-22T12:30:01.739Z,31.27
2022-08-22T12:31:06.300Z,31.46
2022-08-22T12:32:27.508Z,31.02
2022-08-22T12:33:44.795Z,30.74
2022-08-22T12:34:55.608Z,30.67
2022-08-22T12:36:02.949Z,31.51
2022-08-22T12:37:15.075Z,31.11
2022-08-22T12:38:28.336Z,30.03
2022-08-22T12:39:30.918Z,30.83
2022-08-22T12:40:36.453Z,30.38
2022-08-22T12:41:40.810Z,31.37
2022-08-22T12:42:54.417Z,30.39
2022-08-22T12:43:59.622Z,29.87
2022-08-22T12:45:08.972Z,29.96
2022-08-22T12:46:22.892Z,30.27
2022-08-22T12:47:43.076Z,30.22
2022-08-22T12:48:48.903Z,29.71
2022-08-22T12:50:25.641Z,29.28
2022-08-22T12:51:41.776Z,29.42
2022-08-22T12:52:44.384Z,29.30
2022-08-22T12:54:04.681Z,29.21
2022-08-22T12:55:06.094Z,29.20
2022-08-22T12:56:25.145Z,29.79
2022-08-22T12:57:32.911Z,29.68
2022-08-22T12:58:53.018Z,29.81
2022-08-22T13:00:03.340Z,29.68
2022-08-22T13:01:08.288Z,29.30
2022-08-22T13:02:15.576Z,29.43
2022-08-22T13:03:29.704Z,29.45
2022-08-22T13:04:34.329Z,29.49
2022-08-22T13:05:40.838Z,29.17
2022-08-22T13:06:48.842Z,29.59
2022-08-22T13:07:57.749Z,28.99
2022-08-22T13:09:28.956Z,29.00
2022-08-22T13:10:50.389Z,30.25
2022-08-22T13:11:54.468Z,29.43
2022-08-22T13:12:59.934Z,29.75
2022-08-22T13:14:07.186Z,29.25
2022-08-22T13:15:20.995Z,29.63
2022-08-22T13:16:24.893Z,29.79
2022-08-22T13:17:26.642Z,29.35
2022-08-22T13:18:35.601Z,28.76
2022-08-22T13:19:45.407Z,28.16
2022-08-22T13:20:49.193Z,28.14
2022-08-22T13:21:57.042Z,28.71
2022-08-22T13:22:59.466Z,29.91
2022-08-22T13:24:10.834Z,28.73
2022-08-22T13:25:25.860Z,29.17
2022-08-22T13:26:34.059Z,28.89
2022-08-22T13:27:50.979Z,28.12
2022-08-22T13:29:24.173Z,28.12
2022-08-22T13:30:23.241Z,28.45
2022-08-22T13:31:27.191Z,28.86
2022-08-22T13:32:35.605Z,28.75
2022-08-22T13:33:41.333Z,28.65
2022-08-22T13:34:48.474Z,28.38
2022-08-22T13:35:55.204Z,28.58
2022-08-22T13:36:59.362Z,29.50
2022-08-22T13:38:12.063Z,30.43
2022-08-22T13:39:13.901Z,28.89
2022-08-22T13:40:28.009Z,28.90
2022-08-22T13:41:32.692Z,27.74
2022-08-22T13:42:39.944Z,27.66
2022-08-22T13:44:10.168Z,28.46
2022-08-22T13:45:14.142Z,28.33
2022-08-22T13:46:22.206Z,28.14
2022-08-22T13:47:25.695Z,27.68
2022-08-22T13:48:29.502Z,28.15
2022-08-22T13:49:42.331Z,27.94
2022-08-22T13:51:02.267Z,28.14
2022-08-22T13:52:29.701Z,27.81
2022-08-22T13:53:31.679Z,28.17
2022-08-22T13:54:45.190Z,28.22
2022-08-22T13:55:51.363Z,28.64
2022-08-22T13:57:00.591Z,28.96
2022-08-22T13:58:11.051Z,28.96
2022-08-22T13:59:40.427Z,29.31
2022-08-22T14:01:01.991Z,29.45
2022-08-22T14:02:18.209Z,29.83
2022-08-22T14:03:22.774Z,29.88
2022-08-22T14:04:31.965Z,30.02
2022-08-22T14:05:45.298Z,29.82
2022-08-22T14:06:46.653Z,28.88
2022-08-22T14:07:55.506Z,28.71
2022-08-22T14:09:08.738Z,29.34
2022-08-22T14:10:15.184Z,28.84
2022-08-22T14:11:32.041Z,28.42
2022-08-22T14:12:50.554Z,28.57
2022-08-22T14:14:00.662Z,29.15
2022-08-22T14:15:04.821Z,29.37
2022-08-22T14:16:26.492Z,29.59
2022-08-22T14:17:31.149Z,29.05
2022-08-22T14:18:37.268Z,28.78
2022-08-22T14:19:53.099Z,29.10
2022-08-22T14:21:16.511Z,29.66
2022-08-22T14:22:31.667Z,29.66
2022-08-22T14:23:34.693Z,29.53
2022-08-22T14:24:55.538Z,30.00
2022-08-22T14:25:57.499Z,30.32
2022-08-22T14:27:05.232Z,30.46
2022-08-22T14:28:20.752Z,30.54
2022-08-22T14:29:24.876Z,30.85
2022-08-22T14:30:32.809Z,30.79
2022-08-22T14:31:35.201Z,31.36
2022-08-22T14:32:41.858Z,30.80
2022-08-22T14:33:46.385Z,31.33
2022-08-22T14:34:58.867Z,30.93
2022-08-22T14:36:04.059Z,30.86
2022-08-22T14:37:34.960Z,30.89
2022-08-22T14:38:46.085Z,30.24
2022-08-22T14:39:59.778Z,30.36
2022-08-22T14:41:07.127Z,30.11
2022-08-22T14:42:13.578Z,30.19
2022-08-22T14:43:15.021Z,30.21
2022-08-22T14:44:31.155Z,30.32
2022-08-22T14:45:36.924Z,29.77
2022-08-22T14:46:52.941Z,30.66
2022-08-22T14:48:29.397Z,30.50
2022-08-22T14:49:35.387Z,30.24
2022-08-22T14:51:12.170Z,29.61
2022-08-22T14:52:26.306Z,29.56
2022-08-22T14:53:34.063Z,29.58
2022-08-22T14:54:36.141Z,29.58
2022-08-22T14:55:37.953Z,29.65
2022-08-22T14:56:39.969Z,29.41
2022-08-22T14:57:45.395Z,30.10
2022-08-22T14:58:49.194Z,29.04
2022-08-22T14:59:52.156Z,29.40
2022-08-22T15:00:54.528Z,28.94
2022-08-22T15:01:58.444Z,29.03
2022-08-22T15:03:25.783Z,29.17
2022-08-22T15:04:33.366Z,29.14
2022-08-22T15:05:45.532Z,29.84
2022-08-22T15:06:57.824Z,29.74
2022-08-22T15:08:00.297Z,29.74
2022-08-22T15:09:07.660Z,29.58